Time;durP1;ratioP1;P1;durP2;ratioP2;P2;SDS_P1;SDS_P2;PMS_P1;PMS_P2;Temp;Humidity;BMP_temperature;BMP_pressure;BME280_temperature;BME280_humidity;BME280_pressure;Samples;Min_cycle;Max_cycle;Signal;HPM_P1;HPM_P2
2022/06/18 00:01:34;;;;;;;7.03;6.50;;;;;;;17.92;66.96;101530.59;5013263;28;20543;-45
2022/06/18 00:04:08;;;;;;;8.20;7.60;;;;;;;17.93;66.78;101531.44;5013028;28;20447;-44
2022/06/18 00:06:39;;;;;;;7.07;6.53;;;;;;;17.91;66.85;101515.47;5013484;28;20576;-44
2022/06/18 00:09:07;;;;;;;8.30;7.70;;;;;;;17.90;66.92;101513.81;5012542;28;20464;-44
2022/06/18 00:14:19;;;;;;;7.37;6.80;;;;;;;17.87;67.14;101525.06;5013146;28;20443;-46
2022/06/18 00:16:48;;;;;;;6.67;6.17;;;;;;;17.86;67.40;101526.09;5013055;28;20431;-45
2022/06/18 00:19:16;;;;;;;8.00;7.50;;;;;;;17.85;67.42;101526.34;5011984;28;20468;-48
2022/06/18 00:21:43;;;;;;;8.00;7.40;;;;;;;17.87;67.54;101524.22;5012489;28;20460;-47
2022/06/18 00:24:15;;;;;;;7.47;7.00;;;;;;;17.89;67.35;101517.56;5012690;28;20436;-43
2022/06/18 00:26:43;;;;;;;7.37;6.87;;;;;;;17.88;67.40;101515.09;5013016;28;20483;-42
2022/06/18 00:29:14;;;;;;;6.40;6.10;;;;;;;17.88;67.38;101521.31;5012056;28;20472;-43
2022/06/18 00:31:41;;;;;;;7.03;6.53;;;;;;;17.89;67.44;101516.75;5015317;28;20462;-45
2022/06/18 00:34:12;;;;;;;7.00;6.50;;;;;;;17.85;67.32;101504.75;5024752;28;20783;-45
2022/06/18 00:36:42;;;;;;;7.40;6.80;;;;;;;17.83;67.80;101517.66;5012978;28;20429;-45
2022/06/18 00:39:13;;;;;;;7.30;6.67;;;;;;;17.82;67.77;101500.63;5011763;28;20457;-45
2022/06/18 00:41:42;;;;;;;7.40;6.80;;;;;;;17.81;67.93;101498.97;5012479;28;20460;-46
2022/06/18 00:44:28;;;;;;;6.93;6.53;;;;;;;17.79;68.01;101486.78;5012381;28;20433;-45
2022/06/18 00:47:06;;;;;;;8.00;7.30;;;;;;;17.76;68.10;101501.53;5012351;28;20503;-45
2022/06/18 00:49:43;;;;;;;6.83;6.33;;;;;;;17.74;68.20;101494.72;5012189;28;20925;-46
2022/06/18 00:52:16;;;;;;;8.13;7.63;;;;;;;17.72;68.24;101484.13;5012338;28;20818;-47
2022/06/18 00:54:49;;;;;;;7.57;7.00;;;;;;;17.68;68.33;101478.38;5012468;28;20429;-47
2022/06/18 00:57:28;;;;;;;9.00;7.97;;;;;;;17.65;68.21;101478.81;5011950;28;20421;-46
2022/06/18 01:00:02;;;;;;;6.90;6.50;;;;;;;17.61;68.65;101476.81;5012209;28;20425;-47
2022/06/18 01:02:34;;;;;;;7.97;7.20;;;;;;;17.57;68.90;101479.13;5011821;28;20970;-45
2022/06/18 01:05:15;;;;;;;8.80;8.10;;;;;;;17.52;68.92;101478.94;5012375;28;21006;-46
2022/06/18 01:07:42;;;;;;;7.40;6.90;;;;;;;17.49;69.07;101481.28;5011661;28;20814;-43
2022/06/18 01:10:17;;;;;;;7.17;6.77;;;;;;;17.45;69.10;101478.19;5018414;28;21005;-45
2022/06/18 01:12:44;;;;;;;8.00;6.80;;;;;;;17.42;69.24;101475.13;5023212;28;20448;-44
2022/06/18 01:15:20;;;;;;;7.30;6.80;;;;;;;17.38;69.42;101458.56;5032005;28;20435;-44
2022/06/18 01:17:51;;;;;;;8.23;7.73;;;;;;;17.35;69.83;101452.81;5031437;28;20463;-48
2022/06/18 01:20:23;;;;;;;7.63;7.13;;;;;;;17.32;69.93;101448.69;5031299;28;20755;-47
2022/06/18 01:23:02;;;;;;;8.07;7.67;;;;;;;17.28;70.13;101443.97;5031315;28;20436;-45
2022/06/18 01:25:33;;;;;;;7.60;7.00;;;;;;;17.28;70.34;101438.56;5031303;28;20431;-44
2022/06/18 01:28:00;;;;;;;7.47;6.97;;;;;;;17.28;70.49;101439.41;5030646;28;20472;-46
2022/06/18 01:30:35;;;;;;;7.10;6.70;;;;;;;17.28;70.62;101430.47;5030525;28;20796;-51
2022/06/18 01:33:06;;;;;;;7.33;6.83;;;;;;;17.26;70.85;101430.72;5021966;28;20440;-45
2022/06/18 01:35:37;;;;;;;7.97;7.37;;;;;;;17.28;71.04;101434.00;5029445;28;20976;-44
2022/06/18 01:38:06;;;;;;;7.83;7.23;;;;;;;17.32;71.11;101440.59;5030516;28;20470;-47
2022/06/18 01:40:49;;;;;;;7.43;7.03;;;;;;;17.34;71.06;101443.06;5030271;28;20432;-47
2022/06/18 01:43:20;;;;;;;6.30;6.00;;;;;;;17.37;71.34;101437.22;5030417;28;20436;-42
2022/06/18 01:45:53;;;;;;;7.20;6.70;;;;;;;17.38;71.42;101417.31;5030729;28;20478;-49
2022/06/18 01:48:26;;;;;;;6.27;5.87;;;;;;;17.42;71.32;101421.19;5030312;28;20475;-44
2022/06/18 01:50:57;;;;;;;7.33;6.83;;;;;;;17.41;71.29;101417.66;5030294;28;20448;-45
2022/06/18 01:53:30;;;;;;;7.50;7.00;;;;;;;17.43;71.31;101420.16;5029967;28;20436;-49
2022/06/18 01:56:02;;;;;;;7.10;6.60;;;;;;;17.44;71.24;101419.09;5030278;28;20428;-45
2022/06/18 01:58:36;;;;;;;6.33;5.90;;;;;;;17.44;71.35;101421.81;5030047;28;20471;-45
2022/06/18 02:01:11;;;;;;;7.43;6.80;;;;;;;17.46;71.28;101420.53;5046683;23;20487;-45
2022/06/18 02:03:39;;;;;;;8.03;7.20;;;;;;;17.46;71.78;101415.13;4993921;28;20856;-47
2022/06/18 02:06:09;;;;;;;6.93;6.50;;;;;;;17.49;71.75;101413.84;4992177;28;20864;-45
2022/06/18 02:08:37;;;;;;;7.47;7.03;;;;;;;17.49;71.68;101413.84;4990375;28;20462;-46
2022/06/18 02:11:08;;;;;;;7.20;6.70;;;;;;;17.50;71.66;101416.31;4990562;28;20456;-48
2022/06/18 02:13:40;;;;;;;8.37;7.77;;;;;;;17.51;71.93;101406.34;4990671;28;20442;-45
2022/06/18 02:16:13;;;;;;;7.30;6.80;;;;;;;17.49;72.11;101408.47;4990811;28;20434;-48
2022/06/18 02:18:43;;;;;;;6.87;6.37;;;;;;;17.48;72.26;101404.09;4990407;28;21050;-46
2022/06/18 02:21:13;;;;;;;7.40;7.00;;;;;;;17.47;72.09;101407.88;4991038;28;20449;-49
2022/06/18 02:23:41;;;;;;;7.60;7.10;;;;;;;17.45;72.48;101404.56;4991320;28;20513;-45
2022/06/18 02:26:11;;;;;;;6.87;6.43;;;;;;;17.43;72.49;101398.56;4991679;28;20472;-47
2022/06/18 02:28:42;;;;;;;7.33;6.93;;;;;;;17.42;72.46;101407.72;4990699;28;20489;-45
2022/06/18 02:31:15;;;;;;;7.10;6.60;;;;;;;17.40;72.40;101407.13;4990736;28;20477;-47
2022/06/18 02:33:49;;;;;;;7.00;6.50;;;;;;;17.37;72.44;101403.00;4990934;28;20460;-49
2022/06/18 02:36:20;;;;;;;6.60;6.20;;;;;;;17.35;72.34;101402.38;4991044;28;20923;-47
2022/06/18 02:38:48;;;;;;;7.47;6.93;;;;;;;17.32;72.22;101392.06;4990334;28;20465;-47
2022/06/18 02:41:17;;;;;;;8.50;8.00;;;;;;;17.28;72.74;101384.66;4990765;28;20450;-48
2022/06/18 02:43:46;;;;;;;6.90;6.50;;;;;;;17.25;72.90;101371.63;4991029;28;20434;-46
2022/06/18 02:46:14;;;;;;;8.60;7.90;;;;;;;17.23;73.14;101362.94;4990900;28;20434;-48
2022/06/18 02:48:43;;;;;;;7.00;6.50;;;;;;;17.22;73.16;101366.69;4990096;28;21012;-45
2022/06/18 02:51:13;;;;;;;7.77;7.37;;;;;;;17.20;73.08;101371.47;4990686;28;20460;-47
2022/06/18 02:53:42;;;;;;;8.50;8.00;;;;;;;17.18;73.28;101369.00;4990634;28;20448;-46
2022/06/18 02:56:13;;;;;;;7.50;7.00;;;;;;;17.17;73.39;101371.94;4991034;28;20434;-47
2022/06/18 02:58:44;;;;;;;7.60;7.10;;;;;;;17.17;73.60;101371.94;4993043;28;20834;-46
2022/06/18 03:01:14;;;;;;;7.93;7.20;;;;;;;17.16;73.68;101371.09;4993984;28;21002;-46
2022/06/18 03:03:47;;;;;;;7.57;7.13;;;;;;;17.17;73.76;101364.69;4994361;28;20433;-50
2022/06/18 03:06:17;;;;;;;7.10;6.70;;;;;;;17.18;73.87;101369.00;4994215;28;20473;-46
2022/06/18 03:08:46;;;;;;;7.10;6.73;;;;;;;17.18;73.90;101371.69;4993591;28;20842;-47
2022/06/18 03:14:02;;;;;;;8.43;7.83;;;;;;;17.26;74.15;101378.66;4993518;28;20442;-48
2022/06/18 03:16:30;;;;;;;7.90;7.40;;;;;;;17.31;74.65;101379.63;4993793;28;20434;-46
2022/06/18 03:19:00;;;;;;;7.57;7.07;;;;;;;17.37;74.83;101380.59;4993176;28;20457;-46
2022/06/18 03:21:34;;;;;;;7.27;6.87;;;;;;;17.46;74.82;101381.94;4994078;28;20927;-47
2022/06/18 03:24:03;;;;;;;6.40;6.00;;;;;;;17.57;74.67;101383.91;4994103;28;20784;-46
2022/06/18 03:26:31;;;;;;;8.87;7.57;;;;;;;17.72;74.74;101378.94;4993874;28;20444;-48
2022/06/18 03:28:59;;;;;;;7.50;7.00;;;;;;;17.86;74.45;101383.09;4993576;28;20548;-47
2022/06/18 03:31:29;;;;;;;8.07;7.37;;;;;;;17.94;74.01;101380.09;4994296;28;20831;-46
2022/06/18 03:33:57;;;;;;;7.83;7.33;;;;;;;18.21;74.58;101383.22;5005334;28;20433;-50
2022/06/18 03:36:26;;;;;;;7.60;7.00;;;;;;;18.31;73.58;101374.56;5013273;28;20437;-48
2022/06/18 03:38:54;;;;;;;8.30;7.37;;;;;;;18.35;72.67;101379.25;5012670;28;20989;-48
2022/06/18 03:41:22;;;;;;;7.73;7.23;;;;;;;18.36;72.37;101380.91;5013246;28;20816;-46
2022/06/18 03:43:52;;;;;;;6.87;6.33;;;;;;;18.32;71.82;101385.13;4999894;28;20815;-45
2022/06/18 03:46:20;;;;;;;8.40;7.90;;;;;;;18.26;71.70;101383.34;4993773;28;20433;-46
2022/06/18 03:48:52;;;;;;;8.13;7.60;;;;;;;18.21;71.93;101381.34;4992766;28;20476;-47
2022/06/18 03:51:21;;;;;;;7.57;7.07;;;;;;;18.16;71.78;101386.59;4993432;28;20446;-51
2022/06/18 03:53:49;;;;;;;8.03;7.27;;;;;;;18.13;72.31;101381.66;4993498;28;20438;-48
2022/06/18 03:56:20;;;;;;;7.87;7.27;;;;;;;18.15;72.73;101384.16;4993344;28;20806;-48
2022/06/18 03:58:48;;;;;;;8.37;7.50;;;;;;;18.25;73.29;101387.91;4992736;28;20462;-47
2022/06/18 04:01:19;;;;;;;8.83;8.17;;;;;;;18.44;73.48;101380.56;4993174;28;20476;-48
2022/06/18 04:03:46;;;;;;;8.27;7.77;;;;;;;18.66;73.52;101381.69;4993034;28;20441;-46
2022/06/18 04:06:16;;;;;;;7.90;7.40;;;;;;;18.81;72.01;101393.91;4993190;28;20461;-49
2022/06/18 04:08:44;;;;;;;7.50;6.97;;;;;;;18.96;71.67;101395.09;4991333;28;20462;-48
2022/06/18 04:11:12;;;;;;;7.50;7.00;;;;;;;19.18;70.94;101393.41;4993049;28;20457;-50
2022/06/18 04:13:40;;;;;;;8.13;7.53;;;;;;;19.42;70.08;101396.09;4993024;28;20440;-49
2022/06/18 04:16:08;;;;;;;8.40;7.80;;;;;;;19.70;68.64;101407.78;4993203;28;20533;-49
2022/06/18 04:18:37;;;;;;;7.60;7.20;;;;;;;19.92;67.47;101404.41;4992494;28;20457;-50
2022/06/18 04:21:05;;;;;;;7.90;7.30;;;;;;;20.13;66.64;101401.00;4992683;28;20457;-52
2022/06/18 04:23:34;;;;;;;8.50;7.90;;;;;;;20.31;66.24;101388.09;4992776;28;20433;-50
2022/06/18 04:26:02;;;;;;;8.43;7.80;;;;;;;20.52;65.81;101374.91;4993102;28;20429;-50
2022/06/18 04:28:30;;;;;;;7.87;7.47;;;;;;;20.93;64.67;101375.25;4992310;28;20476;-48
2022/06/18 04:30:57;;;;;;;7.57;7.07;;;;;;;21.93;63.07;101380.34;4993054;28;20457;-47
2022/06/18 04:33:26;;;;;;;7.03;6.53;;;;;;;22.87;59.87;101391.50;5008120;28;20494;-49
2022/06/18 04:35:55;;;;;;;7.53;6.83;;;;;;;23.75;58.12;101397.91;4993108;28;20959;-44
2022/06/18 04:38:23;;;;;;;7.30;6.90;;;;;;;24.49;55.50;101386.63;4992033;28;20462;-48
2022/06/18 04:40:52;;;;;;;6.23;5.93;;;;;;;25.17;54.91;101394.19;4992399;28;20990;-45
2022/06/18 04:43:23;;;;;;;6.90;6.50;;;;;;;25.80;53.13;101381.63;4992571;28;20505;-46
2022/06/18 04:45:51;;;;;;;7.20;6.70;;;;;;;25.74;49.00;101376.47;4992690;28;20434;-47
2022/06/18 04:48:19;;;;;;;7.17;6.77;;;;;;;25.34;51.72;101374.72;4991483;28;20461;-45
2022/06/18 04:50:46;;;;;;;6.17;5.77;;;;;;;25.55;51.48;101364.56;4992226;28;20453;-46
2022/06/18 04:53:14;;;;;;;6.70;6.30;;;;;;;26.08;50.81;101362.84;4992475;28;20515;-47
2022/06/18 04:55:42;;;;;;;7.77;7.10;;;;;;;26.77;49.95;101355.16;4992644;28;20891;-48
2022/06/18 04:58:12;;;;;;;8.37;7.73;;;;;;;27.55;48.39;101354.84;4991565;28;20463;-49
2022/06/18 05:00:40;;;;;;;7.40;6.70;;;;;;;28.05;47.11;101350.56;4991566;28;20461;-46
2022/06/18 05:03:07;;;;;;;9.23;7.40;;;;;;;28.24;46.10;101367.81;4991918;28;20593;-49
2022/06/18 05:05:36;;;;;;;6.53;6.20;;;;;;;28.82;45.64;101365.44;4992484;28;20536;-46
2022/06/18 05:08:03;;;;;;;7.30;6.67;;;;;;;29.25;42.53;101359.69;4991339;28;20568;-47
2022/06/18 05:10:31;;;;;;;5.90;5.40;;;;;;;29.64;44.03;101357.19;4991625;28;20453;-48
2022/06/18 05:13:00;;;;;;;7.30;6.63;;;;;;;30.15;43.24;101343.91;4991817;28;20804;-47
2022/06/18 05:15:30;;;;;;;7.07;6.57;;;;;;;30.66;42.02;101346.19;4992127;28;20440;-47
2022/06/18 05:17:58;;;;;;;7.90;7.30;;;;;;;30.85;40.01;101345.13;4991557;28;20218;-47
2022/06/18 05:20:25;;;;;;;8.30;7.57;;;;;;;30.93;40.32;101336.91;4991225;28;20656;-48
2022/06/18 05:22:53;;;;;;;8.23;7.73;;;;;;;31.18;39.78;101343.66;4991759;28;20194;-47
2022/06/18 05:25:21;;;;;;;8.13;7.43;;;;;;;31.56;39.36;101336.47;4992034;28;20204;-45
2022/06/18 05:27:49;;;;;;;7.67;7.17;;;;;;;31.53;39.50;101353.66;4991453;28;20229;-47
2022/06/18 05:30:18;;;;;;;7.70;7.00;;;;;;;31.60;39.55;101355.94;4991243;28;20233;-46
2022/06/18 05:32:47;;;;;;;9.33;8.33;;;;;;;31.83;38.61;101354.66;5002003;28;20189;-47
2022/06/18 05:35:15;;;;;;;7.80;7.20;;;;;;;32.24;38.88;101360.50;4995884;28;20195;-48
2022/06/18 05:37:43;;;;;;;7.15;6.38;;;;;;;32.35;38.01;101360.16;4991520;28;20240;-49
2022/06/18 05:40:12;;;;;;;8.95;8.05;;;;;;;32.72;37.11;101370.47;4991238;28;20332;-49
2022/06/18 05:42:40;;;;;;;8.52;7.90;;;;;;;32.78;35.53;101355.34;4991076;28;20577;-47
2022/06/18 05:45:08;;;;;;;7.30;6.78;;;;;;;32.92;37.74;101364.22;4990693;28;20202;-49
2022/06/18 05:47:36;;;;;;;8.25;7.43;;;;;;;33.22;36.89;101367.84;4991221;28;20242;-45
2022/06/18 05:50:08;;;;;;;9.52;7.82;;;;;;;33.44;36.19;101369.50;4991527;28;20209;-46
2022/06/18 05:52:36;;;;;;;9.23;8.35;;;;;;;33.50;35.41;101369.00;4990957;28;20233;-49
2022/06/18 05:55:04;;;;;;;7.18;6.78;;;;;;;33.54;36.21;101374.66;4991351;28;20202;-46
2022/06/18 05:57:31;;;;;;;8.18;7.65;;;;;;;33.54;34.78;101372.72;4991230;28;20304;-47
2022/06/18 06:00:05;;;;;;;9.98;9.07;;;;;;;33.42;34.83;101369.03;4991080;28;20220;-46
2022/06/18 06:02:32;;;;;;;9.98;9.00;;;;;;;33.58;35.84;101364.53;4990608;28;20376;-48
2022/06/18 06:05:00;;;;;;;10.60;9.68;;;;;;;33.51;34.54;101369.81;4991321;28;20205;-46
2022/06/18 06:07:29;;;;;;;9.32;8.73;;;;;;;33.65;34.62;101370.38;4990882;28;20226;-44
2022/06/18 06:12:42;;;;;;;10.07;8.98;;;;;;;34.09;34.14;101364.16;4991632;28;20194;-49
2022/06/18 06:15:11;;;;;;;9.82;8.63;;;;;;;34.32;33.79;101379.25;4991292;28;20671;-48
2022/06/18 06:17:38;;;;;;;11.68;8.88;;;;;;;34.42;33.81;101367.75;4991347;28;20234;-45
2022/06/18 06:20:12;;;;;;;10.05;9.02;;;;;;;34.71;31.27;101366.00;4991073;28;20197;-46
2022/06/18 06:22:41;;;;;;;8.55;7.65;;;;;;;34.80;33.30;101372.22;4991333;28;20715;-49
2022/06/18 06:25:09;;;;;;;10.60;9.70;;;;;;;34.57;32.19;101379.31;4991670;28;20198;-46
2022/06/18 06:27:36;;;;;;;10.13;9.23;;;;;;;34.27;31.51;101378.66;4990856;28;20325;-48
2022/06/18 06:30:05;;;;;;;8.77;8.05;;;;;;;34.26;32.02;101393.66;4991175;28;20214;-44
2022/06/18 06:32:37;;;;;;;8.73;7.95;;;;;;;34.29;33.26;101391.00;5000427;28;20225;-51
2022/06/18 06:35:06;;;;;;;10.45;9.55;;;;;;;34.25;33.07;101395.63;5009734;28;20198;-46
2022/06/18 06:37:34;;;;;;;9.85;9.10;;;;;;;33.46;33.92;101403.16;5014425;28;20303;-49
2022/06/18 06:40:05;;;;;;;10.38;9.38;;;;;;;32.86;34.58;101409.75;5014851;28;20197;-50
2022/06/18 06:42:40;;;;;;;10.13;7.63;;;;;;;31.27;36.61;101420.84;5011382;28;20205;-50
2022/06/18 06:45:12;;;;;;;9.27;8.57;;;;;;;30.66;37.63;101417.75;4995290;28;20575;-50
2022/06/18 06:47:40;;;;;;;8.30;7.35;;;;;;;29.97;39.46;101424.66;4994760;28;20592;-47
2022/06/18 06:50:10;;;;;;;8.88;8.18;;;;;;;29.66;39.46;101425.59;4994970;28;20214;-48
2022/06/18 06:52:38;;;;;;;7.95;7.25;;;;;;;29.59;40.26;101426.84;4994762;28;20301;-47
2022/06/18 06:58:01;;;;;;;6.43;5.85;;;;;;;27.85;43.65;101422.09;4994292;28;20229;-46
2022/06/18 07:00:29;;;;;;;6.55;6.00;;;;;;;27.79;43.74;101435.06;4994393;28;20201;-49
2022/06/18 07:02:56;;;;;;;8.27;6.28;;;;;;;27.74;44.81;101429.66;4994844;28;20198;-48
2022/06/18 07:05:28;;;;;;;8.57;7.50;;;;;;;27.29;45.48;101439.22;4987684;28;20265;-50
2022/06/18 07:07:55;;;;;;;8.77;6.47;;;;;;;27.45;45.69;101435.22;4997577;28;20239;-47
2022/06/18 07:10:25;;;;;;;10.50;7.50;;;;;;;27.35;46.63;101438.06;5005647;28;20213;-45
2022/06/18 07:12:53;;;;;;;9.23;7.17;;;;;;;27.54;45.73;101434.59;5013845;28;20280;-47
2022/06/18 07:15:21;;;;;;;7.43;6.80;;;;;;;27.98;45.20;101433.19;5014226;28;20212;-48
2022/06/18 07:17:48;;;;;;;8.13;7.27;;;;;;;28.46;44.67;101430.28;5013824;28;20243;-47
2022/06/18 07:20:18;;;;;;;7.67;6.93;;;;;;;28.65;42.97;101433.00;5013332;28;20185;-48
2022/06/18 07:22:46;;;;;;;8.37;7.33;;;;;;;28.41;43.47;101433.91;5013966;28;20202;-46
2022/06/18 07:25:15;;;;;;;7.83;7.07;;;;;;;27.82;44.26;101431.75;5014273;28;20212;-46
2022/06/18 07:27:45;;;;;;;6.83;6.23;;;;;;;27.31;46.37;101450.69;5013225;28;20222;-46
2022/06/18 07:30:13;;;;;;;8.40;6.80;;;;;;;26.84;48.22;101435.03;5013271;28;20226;-49
2022/06/18 07:32:46;;;;;;;7.33;6.63;;;;;;;26.79;48.68;101436.97;5007576;28;20194;-48
2022/06/18 07:35:19;;;;;;;12.83;7.00;;;;;;;26.74;48.22;101451.50;5009304;28;20201;-46
2022/06/18 07:37:46;;;;;;;6.00;5.50;;;;;;;26.73;49.39;101443.59;5013001;28;20228;-46
2022/06/18 07:40:15;;;;;;;7.50;6.40;;;;;;;26.08;51.13;101442.94;5013043;28;20201;-46
2022/06/18 07:42:46;;;;;;;6.33;5.73;;;;;;;26.45;49.20;101447.94;5004692;28;20193;-48
2022/06/18 07:45:19;;;;;;;6.60;6.00;;;;;;;26.45;50.15;101450.66;4980520;28;20431;-48
2022/06/18 07:47:47;;;;;;;7.30;6.60;;;;;;;26.89;49.60;101458.78;4990052;28;20749;-50
2022/06/18 07:50:16;;;;;;;9.70;6.57;;;;;;;27.31;48.86;101460.84;4993064;28;20483;-50
2022/06/18 07:52:44;;;;;;;6.33;5.83;;;;;;;27.07;48.05;101457.25;5010042;28;20436;-51
2022/06/18 07:55:16;;;;;;;8.97;5.60;;;;;;;27.02;48.41;101460.88;5013611;28;20194;-47
2022/06/18 07:57:46;;;;;;;5.83;5.43;;;;;;;27.36;48.39;101475.28;5013127;28;20589;-51
2022/06/18 08:00:17;;;;;;;7.50;6.07;;;;;;;27.71;47.09;101460.41;4999680;28;20197;-50
2022/06/18 08:02:45;;;;;;;9.03;5.73;;;;;;;27.12;48.57;101471.69;4993992;28;20198;-47
2022/06/18 08:05:19;;;;;;;6.07;5.40;;;;;;;27.04;49.22;101463.31;4994013;28;20202;-51
2022/06/18 08:07:47;;;;;;;7.87;6.40;;;;;;;26.66;49.66;101454.06;4993457;28;20222;-49
2022/06/18 08:10:37;;;;;;;6.23;5.73;;;;;;;26.90;50.72;101450.31;4992739;28;20480;-47
2022/06/18 08:13:07;;;;;;;6.90;6.30;;;;;;;26.60;50.22;101456.00;4994304;28;20445;-48
2022/06/18 08:15:40;;;;;;;10.87;6.83;;;;;;;26.27;51.16;101465.81;5022312;23;20534;-43
2022/06/18 08:18:08;;;;;;;5.87;5.30;;;;;;;25.86;51.98;101453.47;5021997;28;20960;-43
2022/06/18 08:20:54;;;;;;;6.33;5.70;;;;;;;26.05;53.06;101450.88;4993131;28;20970;-45
2022/06/18 08:23:22;;;;;;;5.83;4.90;;;;;;;26.37;52.00;101449.34;4993769;28;20437;-44
2022/06/18 08:25:50;;;;;;;5.43;5.03;;;;;;;26.22;53.38;101445.91;4993850;28;20453;-43
2022/06/18 08:28:19;;;;;;;5.77;4.83;;;;;;;26.21;52.15;101445.09;4993129;28;20461;-43
2022/06/18 08:30:47;;;;;;;5.47;4.97;;;;;;;25.96;52.55;101453.41;4992802;28;20503;-43
2022/06/18 08:33:15;;;;;;;4.37;3.97;;;;;;;25.67;53.33;101468.84;5011579;28;20437;-43
2022/06/18 08:35:43;;;;;;;5.40;4.40;;;;;;;26.18;52.53;101459.31;5012382;28;20456;-46
2022/06/18 08:38:11;;;;;;;4.50;4.30;;;;;;;26.46;52.16;101452.31;5011966;28;20464;-48
2022/06/18 08:40:52;;;;;;;5.37;4.13;;;;;;;26.05;52.61;101461.81;5011679;28;20435;-43
2022/06/18 08:43:39;;;;;;;4.47;4.17;;;;;;;26.01;53.09;101463.50;5012337;28;20428;-43
2022/06/18 08:46:17;;;;;;;4.33;4.00;;;;;;;25.99;53.25;101466.50;5012485;28;20456;-43
2022/06/18 08:49:00;;;;;;;5.60;3.40;;;;;;;25.16;55.51;101452.59;5011458;28;20471;-43
2022/06/18 08:51:37;;;;;;;4.50;4.20;;;;;;;25.07;55.88;101462.41;5012395;28;20587;-44
2022/06/18 08:54:26;;;;;;;3.93;3.63;;;;;;;25.00;55.59;101463.81;4997411;28;20459;-45
2022/06/18 08:57:02;;;;;;;5.07;4.10;;;;;;;25.15;56.05;101467.31;4993043;28;20458;-45
2022/06/18 08:59:42;;;;;;;4.33;3.93;;;;;;;25.60;53.98;101476.50;4992982;28;20441;-43
2022/06/18 09:02:22;;;;;;;4.40;3.60;;;;;;;25.80;53.20;101469.06;4993237;28;20807;-44
2022/06/18 09:05:04;;;;;;;4.03;3.73;;;;;;;24.83;54.34;101471.44;4992964;28;20437;-43
2022/06/18 09:07:48;;;;;;;6.07;4.30;;;;;;;24.87;55.71;101483.47;4992655;28;20466;-43
2022/06/18 09:10:27;;;;;;;4.53;3.73;;;;;;;25.06;53.52;101484.53;4992934;28;20477;-45
2022/06/18 09:12:59;;;;;;;4.77;4.30;;;;;;;25.31;52.23;101488.03;4992938;28;20447;-44
2022/06/18 09:15:34;;;;;;;3.70;3.50;;;;;;;25.31;51.94;101496.22;4992991;28;20438;-43
2022/06/18 09:18:07;;;;;;;3.83;3.53;;;;;;;25.14;53.99;101497.63;4992720;28;20479;-44
2022/06/18 09:20:39;;;;;;;3.37;3.17;;;;;;;25.31;52.04;101487.22;4993231;28;20775;-43
2022/06/18 09:23:14;;;;;;;3.90;3.70;;;;;;;24.72;52.56;101492.44;4992846;28;20443;-44
2022/06/18 09:25:47;;;;;;;4.10;3.67;;;;;;;24.34;55.09;101493.75;4993129;28;20452;-44
2022/06/18 09:28:20;;;;;;;3.87;3.57;;;;;;;24.49;53.08;101495.69;4992321;28;21001;-45
2022/06/18 09:30:54;;;;;;;4.03;3.73;;;;;;;24.35;53.76;101492.66;4992593;28;20851;-45
2022/06/18 09:33:31;;;;;;;3.50;3.20;;;;;;;24.51;55.02;101482.59;5011942;28;20474;-44
2022/06/18 09:36:03;;;;;;;5.67;4.23;;;;;;;24.33;53.63;101494.84;4992667;28;20451;-43
2022/06/18 09:38:36;;;;;;;2.73;2.63;;;;;;;23.87;54.93;101506.63;4992337;28;20469;-44
2022/06/18 09:41:08;;;;;;;3.60;3.30;;;;;;;23.69;53.67;101518.81;4992673;28;20410;-43
2022/06/18 09:43:53;;;;;;;4.20;3.90;;;;;;;24.41;52.66;101488.03;4992573;28;20827;-44
2022/06/18 09:46:25;;;;;;;3.43;3.23;;;;;;;23.96;53.39;101497.69;4992446;28;20481;-42
2022/06/18 09:48:53;;;;;;;3.17;3.07;;;;;;;24.18;53.72;101492.06;4992289;28;20457;-43
2022/06/18 09:51:28;;;;;;;8.57;3.70;;;;;;;24.28;53.46;101504.91;5005135;28;20914;-42
2022/06/18 09:54:01;;;;;;;3.63;2.97;;;;;;;23.90;53.12;101498.75;5012249;28;20478;-44
2022/06/18 09:56:32;;;;;;;2.70;2.50;;;;;;;23.91;54.73;101491.41;5012355;28;20449;-45
2022/06/18 09:59:05;;;;;;;2.93;2.73;;;;;;;23.61;54.64;101502.97;5011523;28;20464;-44
2022/06/18 10:01:38;;;;;;;3.60;3.30;;;;;;;23.63;55.54;101504.34;5012011;28;20913;-42
2022/06/18 10:06:59;;;;;;;5.27;2.50;;;;;;;24.34;53.49;101491.03;4974465;28;20451;-43
2022/06/18 10:09:41;;;;;;;3.13;2.80;;;;;;;24.22;52.74;101493.97;5016373;28;20424;-42
2022/06/18 10:12:18;;;;;;;3.30;2.80;;;;;;;24.18;53.77;101503.78;5016197;28;20461;-43
2022/06/18 10:14:48;;;;;;;5.30;3.50;;;;;;;24.32;53.31;101501.38;5016031;28;20409;-45
2022/06/18 10:17:34;;;;;;;3.03;2.93;;;;;;;24.40;53.38;101508.22;5015404;28;20464;-42
2022/06/18 10:20:09;;;;;;;3.57;2.67;;;;;;;24.69;53.49;101509.34;5016334;28;20785;-43
2022/06/18 10:22:47;;;;;;;3.03;2.77;;;;;;;24.57;53.16;101515.06;5016054;28;20440;-44
2022/06/18 10:25:25;;;;;;;3.00;2.80;;;;;;;24.59;50.95;101507.41;5015942;28;20434;-44
2022/06/18 10:27:59;;;;;;;3.27;2.97;;;;;;;25.01;51.36;101515.38;5015704;28;20470;-42
2022/06/18 10:30:38;;;;;;;2.83;2.63;;;;;;;25.55;49.69;101514.75;5016279;28;20551;-43
2022/06/18 10:33:16;;;;;;;3.93;3.27;;;;;;;25.14;50.75;101520.28;5015978;28;20446;-45
2022/06/18 10:35:52;;;;;;;2.87;2.73;;;;;;;24.70;49.60;101525.41;5015570;28;20453;-44
2022/06/18 10:38:36;;;;;;;3.40;3.20;;;;;;;24.76;51.41;101523.50;5015199;28;20467;-42
2022/06/18 10:41:12;;;;;;;2.80;2.70;;;;;;;25.15;49.21;101521.91;5015485;28;20800;-42
2022/06/18 10:44:11;;;;;;;3.50;3.30;;;;;;;25.47;49.93;101520.78;5015776;28;20855;-43
2022/06/18 10:46:41;;;;;;;4.47;3.23;;;;;;;25.41;48.90;101530.06;5015589;28;20456;-43
2022/06/18 10:49:10;;;;;;;2.47;2.27;;;;;;;24.82;49.20;101521.66;5014873;28;20460;-42
2022/06/18 10:51:45;;;;;;;2.90;2.80;;;;;;;25.17;49.74;101518.91;5015175;28;20994;-43
2022/06/18 10:54:13;;;;;;;3.57;3.27;;;;;;;25.63;47.71;101530.56;5015604;28;20416;-42
2022/06/18 10:56:50;;;;;;;3.33;2.90;;;;;;;25.66;47.53;101527.28;5015019;28;20444;-43
2022/06/18 10:59:29;;;;;;;3.57;3.27;;;;;;;25.08;48.94;101537.75;5014498;28;20475;-43
2022/06/18 11:02:01;;;;;;;2.70;2.60;;;;;;;24.42;48.51;101525.09;5015094;28;20458;-46
2022/06/18 11:04:32;;;;;;;3.37;2.40;;;;;;;24.21;51.14;101540.59;5015122;28;20487;-45
2022/06/18 11:07:03;;;;;;;2.30;2.20;;;;;;;24.20;49.77;101545.22;5015135;28;20444;-42
2022/06/18 11:09:33;;;;;;;3.10;2.90;;;;;;;24.34;49.40;101539.28;5014728;28;20462;-43
2022/06/18 11:12:05;;;;;;;3.50;2.93;;;;;;;23.83;50.56;101551.84;5014918;28;20471;-43
2022/06/18 11:14:39;;;;;;;3.50;2.73;;;;;;;23.78;50.82;101547.19;5014840;28;20922;-42
2022/06/18 11:17:19;;;;;;;3.20;2.43;;;;;;;23.98;50.38;101546.47;5014365;28;20460;-42
2022/06/18 11:19:49;;;;;;;3.53;3.00;;;;;;;23.72;48.67;101550.13;5014318;28;20439;-43
2022/06/18 11:22:20;;;;;;;3.50;3.20;;;;;;;23.59;50.64;101546.81;5014579;28;20427;-42
2022/06/18 11:24:55;;;;;;;3.40;3.10;;;;;;;24.18;52.50;101543.84;5014745;28;20417;-42
2022/06/18 11:27:24;;;;;;;3.97;3.67;;;;;;;24.32;51.51;101549.59;5014265;28;20463;-43
2022/06/18 11:29:54;;;;;;;3.70;3.50;;;;;;;24.28;50.35;101532.16;5014778;28;20806;-43
2022/06/18 11:32:26;;;;;;;3.43;3.23;;;;;;;24.14;52.36;101540.84;5014166;28;20464;-42
2022/06/18 11:35:04;;;;;;;3.27;2.97;;;;;;;24.56;50.98;101531.69;4995223;28;20493;-41
2022/06/18 11:37:33;;;;;;;3.37;3.20;;;;;;;24.88;48.35;101531.47;4994088;28;20515;-42
2022/06/18 11:40:04;;;;;;;3.30;3.10;;;;;;;25.23;46.69;101535.03;4994810;28;20438;-43
2022/06/18 11:42:41;;;;;;;2.80;2.60;;;;;;;24.97;47.52;101541.56;4994772;28;20438;-42
2022/06/18 11:45:27;;;;;;;3.53;2.70;;;;;;;25.13;47.49;101545.94;4994506;28;20926;-43
2022/06/18 11:47:59;;;;;;;4.50;2.80;;;;;;;24.97;47.17;101535.31;4993994;28;20484;-41
2022/06/18 11:50:33;;;;;;;3.20;3.00;;;;;;;25.13;46.42;101547.84;4994639;28;20414;-42
2022/06/18 11:53:06;;;;;;;3.07;2.87;;;;;;;25.42;46.21;101537.97;4994793;28;20468;-44
2022/06/18 11:55:36;;;;;;;3.63;2.70;;;;;;;25.56;43.04;101538.25;4994690;28;20809;-42
2022/06/18 11:58:12;;;;;;;2.90;2.70;;;;;;;25.69;43.63;101549.41;4994074;28;20469;-43